sensor_id;sensor_type;location;lat;lon;timestamp;P1;durP1;ratioP1;P2;durP2;ratioP2
1128;SDS011;553;51.038;7.216;2023-07-08T00:01:17;5.70;;;3.83;;
1128;SDS011;553;51.038;7.216;2023-07-08T00:03:45;5.10;;;3.70;;
1128;SDS011;553;51.038;7.216;2023-07-08T00:06:22;9.53;;;4.10;;
1128;SDS011;553;51.038;7.216;2023-07-08T00:08:51;3.50;;;3.20;;
1128;SDS011;553;51.038;7.216;2023-07-08T00:11:18;4.80;;;3.70;;
1128;SDS011;553;51.038;7.216;2023-07-08T00:13:45;4.20;;;3.50;;
1128;SDS011;553;51.038;7.216;2023-07-08T00:16:13;4.70;;;3.60;;
1128;SDS011;553;51.038;7.216;2023-07-08T00:18:43;6.20;;;3.37;;
1128;SDS011;553;51.038;7.216;2023-07-08T00:21:10;4.90;;;3.40;;
1128;SDS011;553;51.038;7.216;2023-07-08T00:23:44;4.40;;;4.00;;
1128;SDS011;553;51.038;7.216;2023-07-08T00:26:18;4.40;;;3.80;;
1128;SDS011;553;51.038;7.216;2023-07-08T00:28:49;4.80;;;3.93;;
1128;SDS011;553;51.038;7.216;2023-07-08T00:31:16;4.80;;;3.53;;
1128;SDS011;553;51.038;7.216;2023-07-08T00:33:50;4.60;;;3.37;;
1128;SDS011;553;51.038;7.216;2023-07-08T00:36:17;4.80;;;4.00;;
1128;SDS011;553;51.038;7.216;2023-07-08T00:38:44;4.87;;;3.63;;
1128;SDS011;553;51.038;7.216;2023-07-08T00:44:11;5.37;;;4.00;;
1128;SDS011;553;51.038;7.216;2023-07-08T00:52:18;5.10;;;4.03;;
1128;SDS011;553;51.038;7.216;2023-07-08T00:54:51;7.30;;;4.33;;
1128;SDS011;553;51.038;7.216;2023-07-08T00:57:19;4.83;;;3.60;;
1128;SDS011;553;51.038;7.216;2023-07-08T00:59:53;4.90;;;3.97;;
1128;SDS011;553;51.038;7.216;2023-07-08T01:02:29;4.77;;;3.50;;
1128;SDS011;553;51.038;7.216;2023-07-08T01:05:05;4.57;;;3.80;;
1128;SDS011;553;51.038;7.216;2023-07-08T01:07:38;6.40;;;4.17;;
1128;SDS011;553;51.038;7.216;2023-07-08T01:10:08;4.87;;;3.90;;
1128;SDS011;553;51.038;7.216;2023-07-08T01:12:43;7.73;;;4.13;;
1128;SDS011;553;51.038;7.216;2023-07-08T01:15:14;6.07;;;3.77;;
1128;SDS011;553;51.038;7.216;2023-07-08T01:17:44;4.90;;;4.00;;
1128;SDS011;553;51.038;7.216;2023-07-08T01:20:12;4.90;;;3.40;;
1128;SDS011;553;51.038;7.216;2023-07-08T01:22:39;4.67;;;4.17;;
1128;SDS011;553;51.038;7.216;2023-07-08T01:25:08;4.40;;;4.00;;
1128;SDS011;553;51.038;7.216;2023-07-08T01:27:37;5.90;;;4.07;;
1128;SDS011;553;51.038;7.216;2023-07-08T01:30:07;4.40;;;3.43;;
1128;SDS011;553;51.038;7.216;2023-07-08T01:32:37;5.30;;;2.90;;
1128;SDS011;553;51.038;7.216;2023-07-08T01:35:09;5.63;;;4.10;;
1128;SDS011;553;51.038;7.216;2023-07-08T01:37:43;4.90;;;3.90;;
1128;SDS011;553;51.038;7.216;2023-07-08T01:42:41;4.97;;;3.37;;
1128;SDS011;553;51.038;7.216;2023-07-08T01:45:15;5.70;;;3.60;;
1128;SDS011;553;51.038;7.216;2023-07-08T01:47:46;5.00;;;3.70;;
1128;SDS011;553;51.038;7.216;2023-07-08T01:50:19;4.87;;;3.53;;
1128;SDS011;553;51.038;7.216;2023-07-08T01:52:48;5.57;;;3.60;;
1128;SDS011;553;51.038;7.216;2023-07-08T01:55:20;5.07;;;3.20;;
1128;SDS011;553;51.038;7.216;2023-07-08T01:57:51;6.20;;;4.70;;
1128;SDS011;553;51.038;7.216;2023-07-08T02:00:19;5.63;;;3.40;;
1128;SDS011;553;51.038;7.216;2023-07-08T02:02:47;5.30;;;3.70;;
1128;SDS011;553;51.038;7.216;2023-07-08T02:05:15;3.73;;;3.33;;
1128;SDS011;553;51.038;7.216;2023-07-08T02:07:41;6.53;;;3.63;;
1128;SDS011;553;51.038;7.216;2023-07-08T02:10:08;5.20;;;3.40;;
1128;SDS011;553;51.038;7.216;2023-07-08T02:12:35;4.37;;;3.53;;
1128;SDS011;553;51.038;7.216;2023-07-08T02:15:04;4.80;;;3.83;;
1128;SDS011;553;51.038;7.216;2023-07-08T02:17:32;6.23;;;4.03;;
1128;SDS011;553;51.038;7.216;2023-07-08T02:19:59;4.20;;;3.30;;
1128;SDS011;553;51.038;7.216;2023-07-08T02:22:26;4.77;;;3.40;;
1128;SDS011;553;51.038;7.216;2023-07-08T02:24:53;4.67;;;3.80;;
1128;SDS011;553;51.038;7.216;2023-07-08T02:27:19;5.47;;;3.50;;
1128;SDS011;553;51.038;7.216;2023-07-08T02:29:46;7.60;;;4.30;;
1128;SDS011;553;51.038;7.216;2023-07-08T02:32:13;3.67;;;3.17;;
1128;SDS011;553;51.038;7.216;2023-07-08T02:34:40;3.73;;;2.97;;
1128;SDS011;553;51.038;7.216;2023-07-08T02:37:07;5.00;;;3.67;;
1128;SDS011;553;51.038;7.216;2023-07-08T02:39:34;3.93;;;3.53;;
1128;SDS011;553;51.038;7.216;2023-07-08T02:42:01;5.23;;;3.47;;
1128;SDS011;553;51.038;7.216;2023-07-08T02:44:27;6.33;;;4.30;;
1128;SDS011;553;51.038;7.216;2023-07-08T02:46:54;8.40;;;4.23;;
1128;SDS011;553;51.038;7.216;2023-07-08T02:49:21;4.10;;;3.37;;
1128;SDS011;553;51.038;7.216;2023-07-08T02:51:48;4.37;;;3.27;;
1128;SDS011;553;51.038;7.216;2023-07-08T02:54:15;4.87;;;3.20;;
1128;SDS011;553;51.038;7.216;2023-07-08T02:56:42;5.47;;;3.57;;
1128;SDS011;553;51.038;7.216;2023-07-08T02:59:09;4.57;;;3.23;;
1128;SDS011;553;51.038;7.216;2023-07-08T03:01:35;3.93;;;3.47;;
1128;SDS011;553;51.038;7.216;2023-07-08T03:04:08;6.70;;;4.13;;
1128;SDS011;553;51.038;7.216;2023-07-08T03:06:42;10.10;;;4.40;;
1128;SDS011;553;51.038;7.216;2023-07-08T03:09:10;4.80;;;3.53;;
1128;SDS011;553;51.038;7.216;2023-07-08T03:11:38;4.73;;;3.40;;
1128;SDS011;553;51.038;7.216;2023-07-08T03:14:07;4.40;;;4.00;;
1128;SDS011;553;51.038;7.216;2023-07-08T03:16:34;5.80;;;3.90;;
1128;SDS011;553;51.038;7.216;2023-07-08T03:19:01;6.07;;;3.70;;
1128;SDS011;553;51.038;7.216;2023-07-08T03:21:28;5.40;;;4.33;;
1128;SDS011;553;51.038;7.216;2023-07-08T03:23:56;5.23;;;4.27;;
1128;SDS011;553;51.038;7.216;2023-07-08T03:26:24;5.20;;;3.60;;
1128;SDS011;553;51.038;7.216;2023-07-08T03:28:56;5.77;;;3.97;;
1128;SDS011;553;51.038;7.216;2023-07-08T03:31:24;8.00;;;3.80;;
1128;SDS011;553;51.038;7.216;2023-07-08T03:33:50;7.20;;;4.03;;
1128;SDS011;553;51.038;7.216;2023-07-08T03:36:18;4.57;;;3.40;;
1128;SDS011;553;51.038;7.216;2023-07-08T03:38:51;4.63;;;3.63;;
1128;SDS011;553;51.038;7.216;2023-07-08T03:41:20;5.90;;;3.80;;
1128;SDS011;553;51.038;7.216;2023-07-08T03:43:47;4.47;;;4.00;;
1128;SDS011;553;51.038;7.216;2023-07-08T03:46:17;6.53;;;4.50;;
1128;SDS011;553;51.038;7.216;2023-07-08T03:48:45;4.70;;;3.90;;
1128;SDS011;553;51.038;7.216;2023-07-08T03:51:22;5.20;;;3.50;;
1128;SDS011;553;51.038;7.216;2023-07-08T03:53:52;7.07;;;3.60;;
1128;SDS011;553;51.038;7.216;2023-07-08T03:56:21;8.37;;;3.90;;
1128;SDS011;553;51.038;7.216;2023-07-08T03:58:47;3.93;;;3.50;;
1128;SDS011;553;51.038;7.216;2023-07-08T04:01:17;8.37;;;3.70;;
1128;SDS011;553;51.038;7.216;2023-07-08T04:03:46;6.13;;;3.53;;
1128;SDS011;553;51.038;7.216;2023-07-08T04:06:14;5.37;;;3.77;;
1128;SDS011;553;51.038;7.216;2023-07-08T04:08:41;5.50;;;4.27;;
1128;SDS011;553;51.038;7.216;2023-07-08T04:11:12;8.30;;;4.47;;
1128;SDS011;553;51.038;7.216;2023-07-08T04:13:40;4.10;;;3.57;;
1128;SDS011;553;51.038;7.216;2023-07-08T04:16:07;5.20;;;3.70;;
1128;SDS011;553;51.038;7.216;2023-07-08T04:18:48;6.00;;;4.00;;
1128;SDS011;553;51.038;7.216;2023-07-08T04:21:17;5.87;;;3.80;;
1128;SDS011;553;51.038;7.216;2023-07-08T04:23:47;6.77;;;4.43;;
1128;SDS011;553;51.038;7.216;2023-07-08T04:26:14;4.30;;;3.57;;
1128;SDS011;553;51.038;7.216;2023-07-08T04:28:41;5.20;;;3.90;;
1128;SDS011;553;51.038;7.216;2023-07-08T04:31:09;4.70;;;3.73;;
1128;SDS011;553;51.038;7.216;2023-07-08T04:33:35;4.83;;;4.00;;
1128;SDS011;553;51.038;7.216;2023-07-08T04:36:02;6.50;;;4.00;;
1128;SDS011;553;51.038;7.216;2023-07-08T04:38:30;4.93;;;3.17;;
1128;SDS011;553;51.038;7.216;2023-07-08T04:40:58;4.37;;;3.97;;
1128;SDS011;553;51.038;7.216;2023-07-08T04:43:25;5.70;;;3.30;;
1128;SDS011;553;51.038;7.216;2023-07-08T04:45:55;6.10;;;3.93;;
1128;SDS011;553;51.038;7.216;2023-07-08T04:48:23;5.70;;;3.77;;
1128;SDS011;553;51.038;7.216;2023-07-08T04:50:51;4.87;;;3.80;;
1128;SDS011;553;51.038;7.216;2023-07-08T04:53:19;7.63;;;4.43;;
1128;SDS011;553;51.038;7.216;2023-07-08T04:55:53;6.23;;;4.07;;
1128;SDS011;553;51.038;7.216;2023-07-08T04:58:21;6.10;;;3.63;;
1128;SDS011;553;51.038;7.216;2023-07-08T05:00:48;5.60;;;4.10;;
1128;SDS011;553;51.038;7.216;2023-07-08T05:03:15;5.57;;;3.90;;
1128;SDS011;553;51.038;7.216;2023-07-08T05:05:42;6.50;;;4.17;;
1128;SDS011;553;51.038;7.216;2023-07-08T05:08:09;7.40;;;4.00;;
1128;SDS011;553;51.038;7.216;2023-07-08T05:10:39;8.60;;;4.37;;
1128;SDS011;553;51.038;7.216;2023-07-08T05:13:06;6.47;;;3.90;;
1128;SDS011;553;51.038;7.216;2023-07-08T05:15:33;4.63;;;3.27;;
1128;SDS011;553;51.038;7.216;2023-07-08T05:17:59;6.77;;;3.70;;
1128;SDS011;553;51.038;7.216;2023-07-08T05:20:26;5.67;;;4.13;;
1128;SDS011;553;51.038;7.216;2023-07-08T05:22:54;4.60;;;3.73;;
1128;SDS011;553;51.038;7.216;2023-07-08T05:25:21;5.20;;;4.07;;
1128;SDS011;553;51.038;7.216;2023-07-08T05:27:47;6.20;;;4.03;;
1128;SDS011;553;51.038;7.216;2023-07-08T05:30:16;9.70;;;4.07;;
1128;SDS011;553;51.038;7.216;2023-07-08T05:32:44;8.07;;;4.37;;
1128;SDS011;553;51.038;7.216;2023-07-08T05:35:11;5.30;;;4.33;;
1128;SDS011;553;51.038;7.216;2023-07-08T05:37:38;5.40;;;3.40;;
1128;SDS011;553;51.038;7.216;2023-07-08T05:40:07;7.83;;;3.93;;
1128;SDS011;553;51.038;7.216;2023-07-08T05:42:35;6.00;;;4.07;;
1128;SDS011;553;51.038;7.216;2023-07-08T05:45:02;5.40;;;4.17;;
1128;SDS011;553;51.038;7.216;2023-07-08T05:47:30;4.97;;;3.87;;
1128;SDS011;553;51.038;7.216;2023-07-08T05:49:57;9.70;;;4.13;;
1128;SDS011;553;51.038;7.216;2023-07-08T05:52:23;4.83;;;4.00;;
1128;SDS011;553;51.038;7.216;2023-07-08T05:54:50;4.83;;;4.27;;
1128;SDS011;553;51.038;7.216;2023-07-08T05:57:17;6.20;;;4.30;;
1128;SDS011;553;51.038;7.216;2023-07-08T05:59:44;7.03;;;3.67;;
1128;SDS011;553;51.038;7.216;2023-07-08T06:02:11;7.87;;;4.47;;
1128;SDS011;553;51.038;7.216;2023-07-08T06:04:39;8.43;;;4.10;;
1128;SDS011;553;51.038;7.216;2023-07-08T06:07:06;4.20;;;3.77;;
1128;SDS011;553;51.038;7.216;2023-07-08T06:09:33;5.17;;;3.63;;
1128;SDS011;553;51.038;7.216;2023-07-08T06:12:00;6.57;;;4.53;;
1128;SDS011;553;51.038;7.216;2023-07-08T06:14:27;5.00;;;4.20;;
1128;SDS011;553;51.038;7.216;2023-07-08T06:16:54;5.20;;;4.70;;
1128;SDS011;553;51.038;7.216;2023-07-08T06:19:21;6.80;;;4.80;;
1128;SDS011;553;51.038;7.216;2023-07-08T06:21:48;6.07;;;4.87;;
1128;SDS011;553;51.038;7.216;2023-07-08T06:24:15;7.63;;;4.43;;
1128;SDS011;553;51.038;7.216;2023-07-08T06:26:42;5.83;;;4.80;;
1128;SDS011;553;51.038;7.216;2023-07-08T06:29:09;6.77;;;5.50;;
1128;SDS011;553;51.038;7.216;2023-07-08T06:31:36;5.20;;;4.40;;
1128;SDS011;553;51.038;7.216;2023-07-08T06:34:03;6.40;;;4.73;;
1128;SDS011;553;51.038;7.216;2023-07-08T06:36:30;5.27;;;4.77;;
1128;SDS011;553;51.038;7.216;2023-07-08T06:38:57;5.73;;;4.60;;
1128;SDS011;553;51.038;7.216;2023-07-08T06:41:24;5.00;;;4.30;;
1128;SDS011;553;51.038;7.216;2023-07-08T06:43:51;5.73;;;4.63;;
1128;SDS011;553;51.038;7.216;2023-07-08T06:46:20;6.30;;;5.03;;
1128;SDS011;553;51.038;7.216;2023-07-08T06:48:47;5.93;;;5.33;;
1128;SDS011;553;51.038;7.216;2023-07-08T06:51:13;6.17;;;4.63;;
1128;SDS011;553;51.038;7.216;2023-07-08T06:53:40;5.97;;;4.73;;
1128;SDS011;553;51.038;7.216;2023-07-08T06:56:07;6.20;;;4.60;;
1128;SDS011;553;51.038;7.216;2023-07-08T06:58:34;6.37;;;5.10;;
1128;SDS011;553;51.038;7.216;2023-07-08T07:01:01;6.23;;;5.23;;
1128;SDS011;553;51.038;7.216;2023-07-08T07:03:28;5.60;;;4.70;;
1128;SDS011;553;51.038;7.216;2023-07-08T07:05:55;5.53;;;4.80;;
1128;SDS011;553;51.038;7.216;2023-07-08T07:08:22;5.97;;;5.00;;
1128;SDS011;553;51.038;7.216;2023-07-08T07:10:48;6.70;;;5.30;;
1128;SDS011;553;51.038;7.216;2023-07-08T07:13:15;5.63;;;5.07;;
1128;SDS011;553;51.038;7.216;2023-07-08T07:15:42;6.50;;;4.90;;
1128;SDS011;553;51.038;7.216;2023-07-08T07:18:09;6.60;;;5.67;;
1128;SDS011;553;51.038;7.216;2023-07-08T07:20:36;6.60;;;5.33;;
1128;SDS011;553;51.038;7.216;2023-07-08T07:23:04;5.87;;;4.67;;
1128;SDS011;553;51.038;7.216;2023-07-08T07:25:31;6.70;;;5.00;;
1128;SDS011;553;51.038;7.216;2023-07-08T07:27:57;7.47;;;4.77;;
1128;SDS011;553;51.038;7.216;2023-07-08T07:30:25;6.00;;;5.00;;
1128;SDS011;553;51.038;7.216;2023-07-08T07:32:51;6.37;;;5.20;;
1128;SDS011;553;51.038;7.216;2023-07-08T07:35:18;6.37;;;5.17;;
1128;SDS011;553;51.038;7.216;2023-07-08T07:37:45;9.13;;;5.97;;
1128;SDS011;553;51.038;7.216;2023-07-08T07:40:12;7.60;;;5.47;;
1128;SDS011;553;51.038;7.216;2023-07-08T07:42:42;6.50;;;5.43;;
1128;SDS011;553;51.038;7.216;2023-07-08T07:45:10;6.67;;;5.57;;
1128;SDS011;553;51.038;7.216;2023-07-08T07:47:37;6.47;;;5.30;;
1128;SDS011;553;51.038;7.216;2023-07-08T07:50:05;8.47;;;5.43;;
1128;SDS011;553;51.038;7.216;2023-07-08T07:52:34;6.43;;;5.67;;
1128;SDS011;553;51.038;7.216;2023-07-08T07:55:01;7.17;;;5.47;;
1128;SDS011;553;51.038;7.216;2023-07-08T07:57:29;7.53;;;6.60;;
1128;SDS011;553;51.038;7.216;2023-07-08T07:59:55;6.73;;;5.23;;
1128;SDS011;553;51.038;7.216;2023-07-08T08:02:22;9.97;;;5.43;;
1128;SDS011;553;51.038;7.216;2023-07-08T08:04:49;6.83;;;6.13;;
1128;SDS011;553;51.038;7.216;2023-07-08T08:07:16;7.10;;;5.60;;
1128;SDS011;553;51.038;7.216;2023-07-08T08:09:43;6.87;;;5.47;;
1128;SDS011;553;51.038;7.216;2023-07-08T08:12:10;6.60;;;5.90;;
1128;SDS011;553;51.038;7.216;2023-07-08T08:14:37;6.63;;;5.53;;
1128;SDS011;553;51.038;7.216;2023-07-08T08:17:05;7.50;;;5.97;;
1128;SDS011;553;51.038;7.216;2023-07-08T08:19:32;7.80;;;5.87;;
1128;SDS011;553;51.038;7.216;2023-07-08T08:21:59;6.87;;;5.43;;
1128;SDS011;553;51.038;7.216;2023-07-08T08:24:26;7.20;;;5.70;;
1128;SDS011;553;51.038;7.216;2023-07-08T08:26:53;5.90;;;5.30;;
1128;SDS011;553;51.038;7.216;2023-07-08T08:29:20;9.40;;;5.40;;
1128;SDS011;553;51.038;7.216;2023-07-08T08:31:48;5.80;;;5.20;;
1128;SDS011;553;51.038;7.216;2023-07-08T08:34:16;8.70;;;5.33;;
1128;SDS011;553;51.038;7.216;2023-07-08T08:36:44;6.67;;;4.63;;
1128;SDS011;553;51.038;7.216;2023-07-08T08:39:10;7.23;;;5.23;;
1128;SDS011;553;51.038;7.216;2023-07-08T08:41:38;6.90;;;5.50;;
1128;SDS011;553;51.038;7.216;2023-07-08T08:44:10;5.70;;;4.90;;
1128;SDS011;553;51.038;7.216;2023-07-08T08:46:49;6.10;;;4.40;;
1128;SDS011;553;51.038;7.216;2023-07-08T08:52:31;5.90;;;5.00;;
1128;SDS011;553;51.038;7.216;2023-07-08T08:54:58;6.50;;;4.70;;
1128;SDS011;553;51.038;7.216;2023-07-08T08:57:32;5.37;;;4.83;;
1128;SDS011;553;51.038;7.216;2023-07-08T09:00:08;6.10;;;5.23;;
1128;SDS011;553;51.038;7.216;2023-07-08T09:02:51;5.17;;;4.60;;
1128;SDS011;553;51.038;7.216;2023-07-08T09:05:40;6.30;;;4.67;;
1128;SDS011;553;51.038;7.216;2023-07-08T09:08:13;5.33;;;4.80;;
1128;SDS011;553;51.038;7.216;2023-07-08T09:11:05;4.40;;;4.00;;
1128;SDS011;553;51.038;7.216;2023-07-08T09:13:46;6.23;;;4.47;;
1128;SDS011;553;51.038;7.216;2023-07-08T09:16:15;6.20;;;4.77;;
1128;SDS011;553;51.038;7.216;2023-07-08T09:19:04;5.73;;;4.67;;
1128;SDS011;553;51.038;7.216;2023-07-08T09:24:26;6.63;;;5.40;;
1128;SDS011;553;51.038;7.216;2023-07-08T09:26:53;5.40;;;5.00;;
1128;SDS011;553;51.038;7.216;2023-07-08T09:29:23;6.00;;;5.40;;
1128;SDS011;553;51.038;7.216;2023-07-08T09:31:50;6.50;;;4.70;;
1128;SDS011;553;51.038;7.216;2023-07-08T09:34:19;7.77;;;4.70;;
1128;SDS011;553;51.038;7.216;2023-07-08T09:36:50;5.00;;;4.50;;
1128;SDS011;553;51.038;7.216;2023-07-08T09:39:18;5.70;;;4.97;;
1128;SDS011;553;51.038;7.216;2023-07-08T09:41:47;7.73;;;4.40;;
1128;SDS011;553;51.038;7.216;2023-07-08T09:44:17;5.93;;;5.33;;
1128;SDS011;553;51.038;7.216;2023-07-08T09:46:44;11.13;;;6.17;;
1128;SDS011;553;51.038;7.216;2023-07-08T09:52:02;5.30;;;4.80;;
1128;SDS011;553;51.038;7.216;2023-07-08T09:54:31;5.97;;;5.03;;
1128;SDS011;553;51.038;7.216;2023-07-08T09:59:49;6.40;;;4.80;;
1128;SDS011;553;51.038;7.216;2023-07-08T10:02:24;5.73;;;4.80;;
1128;SDS011;553;51.038;7.216;2023-07-08T10:04:54;5.40;;;4.90;;
1128;SDS011;553;51.038;7.216;2023-07-08T10:07:23;5.70;;;4.87;;
1128;SDS011;553;51.038;7.216;2023-07-08T10:09:50;6.10;;;4.70;;
1128;SDS011;553;51.038;7.216;2023-07-08T10:12:20;8.90;;;4.90;;
1128;SDS011;553;51.038;7.216;2023-07-08T10:14:50;8.40;;;4.50;;
1128;SDS011;553;51.038;7.216;2023-07-08T10:17:20;9.83;;;5.33;;
1128;SDS011;553;51.038;7.216;2023-07-08T10:19:48;6.17;;;4.90;;
1128;SDS011;553;51.038;7.216;2023-07-08T10:22:23;5.60;;;4.87;;
1128;SDS011;553;51.038;7.216;2023-07-08T10:27:57;7.43;;;4.20;;
1128;SDS011;553;51.038;7.216;2023-07-08T10:37:07;8.37;;;5.00;;
1128;SDS011;553;51.038;7.216;2023-07-08T10:45:26;5.90;;;4.10;;
1128;SDS011;553;51.038;7.216;2023-07-08T10:53:42;4.63;;;4.23;;
1128;SDS011;553;51.038;7.216;2023-07-08T10:57:00;4.77;;;3.80;;
1128;SDS011;553;51.038;7.216;2023-07-08T11:02:55;7.10;;;4.33;;
1128;SDS011;553;51.038;7.216;2023-07-08T11:05:41;5.60;;;4.17;;
1128;SDS011;553;51.038;7.216;2023-07-08T11:13:40;4.53;;;3.80;;
1128;SDS011;553;51.038;7.216;2023-07-08T11:19:18;8.37;;;4.07;;
1128;SDS011;553;51.038;7.216;2023-07-08T11:21:51;5.63;;;4.40;;
1128;SDS011;553;51.038;7.216;2023-07-08T11:24:24;6.07;;;4.30;;
1128;SDS011;553;51.038;7.216;2023-07-08T11:27:06;4.43;;;3.67;;
1128;SDS011;553;51.038;7.216;2023-07-08T11:29:49;4.17;;;3.73;;
1128;SDS011;553;51.038;7.216;2023-07-08T11:32:26;4.43;;;3.60;;
1128;SDS011;553;51.038;7.216;2023-07-08T11:34:55;4.10;;;3.70;;
1128;SDS011;553;51.038;7.216;2023-07-08T11:37:25;5.63;;;4.27;;
1128;SDS011;553;51.038;7.216;2023-07-08T11:40:15;6.10;;;4.17;;
1128;SDS011;553;51.038;7.216;2023-07-08T11:42:48;4.87;;;3.90;;
1128;SDS011;553;51.038;7.216;2023-07-08T11:48:04;5.93;;;4.30;;
1128;SDS011;553;51.038;7.216;2023-07-08T11:50:50;5.50;;;4.07;;
1128;SDS011;553;51.038;7.216;2023-07-08T11:55:56;3.93;;;3.53;;
1128;SDS011;553;51.038;7.216;2023-07-08T11:58:28;5.63;;;4.60;;
1128;SDS011;553;51.038;7.216;2023-07-08T12:03:37;4.27;;;3.60;;
1128;SDS011;553;51.038;7.216;2023-07-08T12:07:01;5.17;;;3.77;;
1128;SDS011;553;51.038;7.216;2023-07-08T12:11:53;4.40;;;3.60;;
1128;SDS011;553;51.038;7.216;2023-07-08T12:14:22;4.67;;;4.17;;
1128;SDS011;553;51.038;7.216;2023-07-08T12:16:49;4.00;;;3.60;;
1128;SDS011;553;51.038;7.216;2023-07-08T12:19:16;7.27;;;4.83;;
1128;SDS011;553;51.038;7.216;2023-07-08T12:21:45;4.60;;;4.20;;
1128;SDS011;553;51.038;7.216;2023-07-08T12:24:13;6.43;;;4.67;;
1128;SDS011;553;51.038;7.216;2023-07-08T12:26:41;5.27;;;4.10;;
1128;SDS011;553;51.038;7.216;2023-07-08T12:29:11;6.90;;;4.27;;
1128;SDS011;553;51.038;7.216;2023-07-08T12:31:40;7.17;;;4.80;;
1128;SDS011;553;51.038;7.216;2023-07-08T12:34:13;4.53;;;3.73;;
1128;SDS011;553;51.038;7.216;2023-07-08T12:36:43;5.87;;;3.93;;
1128;SDS011;553;51.038;7.216;2023-07-08T12:39:13;5.47;;;4.30;;
1128;SDS011;553;51.038;7.216;2023-07-08T12:41:43;5.97;;;5.00;;
1128;SDS011;553;51.038;7.216;2023-07-08T12:44:18;5.77;;;4.40;;
1128;SDS011;553;51.038;7.216;2023-07-08T12:46:52;9.83;;;4.67;;
1128;SDS011;553;51.038;7.216;2023-07-08T12:49:20;6.00;;;4.60;;
1128;SDS011;553;51.038;7.216;2023-07-08T12:51:49;7.47;;;5.17;;
1128;SDS011;553;51.038;7.216;2023-07-08T12:54:16;5.83;;;4.70;;
1128;SDS011;553;51.038;7.216;2023-07-08T12:56:43;9.87;;;5.07;;
1128;SDS011;553;51.038;7.216;2023-07-08T12:59:13;6.10;;;4.07;;
1128;SDS011;553;51.038;7.216;2023-07-08T13:01:45;6.23;;;4.77;;
1128;SDS011;553;51.038;7.216;2023-07-08T13:04:13;5.70;;;4.30;;
1128;SDS011;553;51.038;7.216;2023-07-08T13:06:41;6.80;;;4.67;;
1128;SDS011;553;51.038;7.216;2023-07-08T13:11:49;6.77;;;4.90;;
1128;SDS011;553;51.038;7.216;2023-07-08T13:14:18;5.00;;;4.20;;
1128;SDS011;553;51.038;7.216;2023-07-08T13:16:47;5.10;;;4.60;;
1128;SDS011;553;51.038;7.216;2023-07-08T13:19:15;5.10;;;4.60;;
1128;SDS011;553;51.038;7.216;2023-07-08T13:21:45;6.27;;;4.77;;
1128;SDS011;553;51.038;7.216;2023-07-08T13:24:13;10.23;;;5.30;;
1128;SDS011;553;51.038;7.216;2023-07-08T13:26:39;6.03;;;4.43;;
1128;SDS011;553;51.038;7.216;2023-07-08T13:29:15;4.90;;;4.40;;
1128;SDS011;553;51.038;7.216;2023-07-08T13:31:48;6.20;;;4.97;;
1128;SDS011;553;51.038;7.216;2023-07-08T13:34:27;5.10;;;4.60;;
1128;SDS011;553;51.038;7.216;2023-07-08T13:36:54;7.37;;;5.10;;
1128;SDS011;553;51.038;7.216;2023-07-08T13:39:29;5.93;;;4.80;;
1128;SDS011;553;51.038;7.216;2023-07-08T13:41:59;5.97;;;5.37;;
1128;SDS011;553;51.038;7.216;2023-07-08T13:44:27;7.10;;;5.10;;
1128;SDS011;553;51.038;7.216;2023-07-08T13:46:55;6.43;;;5.13;;
1128;SDS011;553;51.038;7.216;2023-07-08T13:49:43;8.00;;;5.80;;
1128;SDS011;553;51.038;7.216;2023-07-08T13:54:41;6.30;;;5.00;;
1128;SDS011;553;51.038;7.216;2023-07-08T13:57:23;8.33;;;5.60;;
1128;SDS011;553;51.038;7.216;2023-07-08T13:59:57;7.37;;;5.57;;
1128;SDS011;553;51.038;7.216;2023-07-08T14:02:26;7.33;;;6.13;;
1128;SDS011;553;51.038;7.216;2023-07-08T14:04:57;6.60;;;5.80;;
1128;SDS011;553;51.038;7.216;2023-07-08T14:07:26;5.83;;;5.23;;
1128;SDS011;553;51.038;7.216;2023-07-08T14:09:55;8.13;;;5.23;;
1128;SDS011;553;51.038;7.216;2023-07-08T14:12:22;6.70;;;5.53;;
1128;SDS011;553;51.038;7.216;2023-07-08T14:14:49;7.40;;;5.00;;
1128;SDS011;553;51.038;7.216;2023-07-08T14:17:23;6.33;;;4.83;;
1128;SDS011;553;51.038;7.216;2023-07-08T14:19:52;7.43;;;5.30;;
1128;SDS011;553;51.038;7.216;2023-07-08T14:22:24;8.37;;;5.33;;
1128;SDS011;553;51.038;7.216;2023-07-08T14:24:52;7.70;;;5.30;;
1128;SDS011;553;51.038;7.216;2023-07-08T14:27:20;7.10;;;5.20;;
1128;SDS011;553;51.038;7.216;2023-07-08T14:29:47;6.87;;;5.30;;
1128;SDS011;553;51.038;7.216;2023-07-08T14:32:23;7.37;;;5.63;;
1128;SDS011;553;51.038;7.216;2023-07-08T14:35:20;7.20;;;5.50;;
1128;SDS011;553;51.038;7.216;2023-07-08T14:37:48;8.23;;;5.87;;
1128;SDS011;553;51.038;7.216;2023-07-08T14:40:34;13.40;;;5.80;;
1128;SDS011;553;51.038;7.216;2023-07-08T14:43:06;7.93;;;5.53;;
1128;SDS011;553;51.038;7.216;2023-07-08T14:45:40;7.80;;;5.50;;
1128;SDS011;553;51.038;7.216;2023-07-08T14:48:13;7.30;;;5.63;;
1128;SDS011;553;51.038;7.216;2023-07-08T14:50:41;7.10;;;5.10;;
1128;SDS011;553;51.038;7.216;2023-07-08T14:53:08;6.00;;;5.40;;
1128;SDS011;553;51.038;7.216;2023-07-08T14:55:35;11.07;;;6.30;;
1128;SDS011;553;51.038;7.216;2023-07-08T14:58:03;10.23;;;5.60;;
1128;SDS011;553;51.038;7.216;2023-07-08T15:00:30;7.90;;;5.87;;
1128;SDS011;553;51.038;7.216;2023-07-08T15:02:57;6.13;;;5.30;;
1128;SDS011;553;51.038;7.216;2023-07-08T15:05:25;8.90;;;5.63;;
1128;SDS011;553;51.038;7.216;2023-07-08T15:07:54;8.57;;;5.70;;
1128;SDS011;553;51.038;7.216;2023-07-08T15:10:26;6.50;;;5.67;;
1128;SDS011;553;51.038;7.216;2023-07-08T15:12:55;8.90;;;5.40;;
1128;SDS011;553;51.038;7.216;2023-07-08T15:15:28;6.03;;;5.43;;
1128;SDS011;553;51.038;7.216;2023-07-08T15:17:57;7.50;;;5.67;;
1128;SDS011;553;51.038;7.216;2023-07-08T15:20:25;8.43;;;5.47;;
1128;SDS011;553;51.038;7.216;2023-07-08T15:22:52;5.97;;;5.33;;
1128;SDS011;553;51.038;7.216;2023-07-08T15:25:19;8.70;;;6.20;;
1128;SDS011;553;51.038;7.216;2023-07-08T15:27:47;8.03;;;5.70;;
1128;SDS011;553;51.038;7.216;2023-07-08T15:30:22;7.13;;;5.43;;
1128;SDS011;553;51.038;7.216;2023-07-08T15:32:50;8.47;;;6.00;;
1128;SDS011;553;51.038;7.216;2023-07-08T15:35:18;7.03;;;5.67;;
1128;SDS011;553;51.038;7.216;2023-07-08T15:37:47;8.13;;;6.47;;
1128;SDS011;553;51.038;7.216;2023-07-08T15:40:15;5.97;;;5.20;;
1128;SDS011;553;51.038;7.216;2023-07-08T15:42:44;5.97;;;5.17;;
1128;SDS011;553;51.038;7.216;2023-07-08T15:45:18;7.13;;;5.70;;
1128;SDS011;553;51.038;7.216;2023-07-08T15:47:46;10.87;;;5.93;;
1128;SDS011;553;51.038;7.216;2023-07-08T15:50:14;7.10;;;5.60;;
1128;SDS011;553;51.038;7.216;2023-07-08T15:52:43;8.67;;;6.03;;
1128;SDS011;553;51.038;7.216;2023-07-08T15:55:11;7.53;;;6.13;;
1128;SDS011;553;51.038;7.216;2023-07-08T15:57:49;9.93;;;6.80;;
1128;SDS011;553;51.038;7.216;2023-07-08T16:00:22;6.80;;;5.83;;
1128;SDS011;553;51.038;7.216;2023-07-08T16:02:54;7.97;;;5.90;;
1128;SDS011;553;51.038;7.216;2023-07-08T16:05:23;6.40;;;5.60;;
1128;SDS011;553;51.038;7.216;2023-07-08T16:07:51;9.20;;;6.07;;
1128;SDS011;553;51.038;7.216;2023-07-08T16:10:19;9.90;;;6.50;;
1128;SDS011;553;51.038;7.216;2023-07-08T16:12:47;9.13;;;6.17;;
1128;SDS011;553;51.038;7.216;2023-07-08T16:15:18;7.73;;;5.90;;
1128;SDS011;553;51.038;7.216;2023-07-08T16:17:49;8.23;;;5.80;;
1128;SDS011;553;51.038;7.216;2023-07-08T16:20:18;9.23;;;6.27;;
1128;SDS011;553;51.038;7.216;2023-07-08T16:22:47;6.67;;;5.97;;
1128;SDS011;553;51.038;7.216;2023-07-08T16:25:15;8.30;;;6.33;;
1128;SDS011;553;51.038;7.216;2023-07-08T16:27:44;7.60;;;6.50;;
1128;SDS011;553;51.038;7.216;2023-07-08T16:30:14;7.43;;;6.20;;
1128;SDS011;553;51.038;7.216;2023-07-08T16:32:44;7.97;;;6.13;;
1128;SDS011;553;51.038;7.216;2023-07-08T16:35:12;6.33;;;5.73;;
1128;SDS011;553;51.038;7.216;2023-07-08T16:37:47;9.40;;;8.00;;
1128;SDS011;553;51.038;7.216;2023-07-08T16:40:20;13.17;;;8.67;;
1128;SDS011;553;51.038;7.216;2023-07-08T16:42:50;10.13;;;6.10;;
1128;SDS011;553;51.038;7.216;2023-07-08T16:45:21;11.93;;;8.97;;
1128;SDS011;553;51.038;7.216;2023-07-08T16:47:49;8.23;;;6.13;;
1128;SDS011;553;51.038;7.216;2023-07-08T16:50:21;13.27;;;8.17;;
1128;SDS011;553;51.038;7.216;2023-07-08T16:52:52;8.83;;;6.63;;
1128;SDS011;553;51.038;7.216;2023-07-08T16:55:19;8.23;;;5.67;;
1128;SDS011;553;51.038;7.216;2023-07-08T16:57:47;9.03;;;6.53;;